Airfield :
LOGIN :

Register | Disclaimer

   EN    FR    IT 

 










Legend :    VFR   Marginal VFR   IFR   Intensive IFR   Very Intensive IFR
Visi :
Ceiling :
>= 8 km
>= 3000ft
5 to 8 km
1000 to 3000 ft
1500m to 5 km
500 to 1000 ft
800 to 1500m
200 to 500 ft
< 800m
< 200 ft
Symbols :   Thunderstorms  Fog  Heavy snow  Heavy precipitations  Wind > 20 kt
SIGMETs :     Misc.  Thunderstorms  Icing  Turbulence  Mountain Waves  Volcanic Ashes







- Airport Elevation : 913 ft
- Download approach charts


LFSX - Luxeuil

CURRENT METAR :
  • 100300Z AUTO 29004KT 9999 BKN023 BKN030 BKN036 04/03 Q1023

EXPIRED METARs :
  • 100230Z AUTO 29003KT 9999 SCT024 BKN033 BKN042 04/03 Q1023
  • 100200Z AUTO 28004KT 260V320 9999 BKN025/// BKN035/// OVC054/// ///TCU 04/03 Q1023
  • 100130Z AUTO 31011G23KT 290V350 4400 RA BR BKN013/// BKN018/// BKN026/// ///TCU 05/03 Q1023
  • 100100Z AUTO 27005KT 230V320 9999 FEW013/// BKN022/// BKN043/// ///TCU 06/04 Q1022
  • 100030Z AUTO 26005KT 230V290 9999 FEW024 SCT037 BKN056 05/04 Q1022

Expired Forecast.
No reported NOTAMs for that airfield.



MET'MAP, your aeronautical weather chart ! - Copyright ORBIFLY December 2007 - Disclaimer

ORBIFLY MET'MAP TEAM :

Programming & Development : Alexandra Zaïnal
Concept & Development : Baudouin d'Aumeries
Co-Development & Prog : Marc-Olivier Méhu
Technical & hardware support : Manuel Goepfert

Contact : metmap@orbifly.com




SOURCES & CREDITS :

   NOAA